sensor_id;sensor_type;location;lat;lon;timestamp;temperature;humidity
16523;DHT22;19889;52.546;13.348;2023-02-27T00:02:23;2.60;99.90
16523;DHT22;19889;52.546;13.348;2023-02-27T00:04:51;2.60;99.90
16523;DHT22;19889;52.546;13.348;2023-02-27T00:07:19;2.90;99.90
16523;DHT22;19889;52.546;13.348;2023-02-27T00:09:51;2.70;99.90
16523;DHT22;19889;52.546;13.348;2023-02-27T00:12:19;2.60;99.90
16523;DHT22;19889;52.546;13.348;2023-02-27T00:14:45;2.50;99.90
16523;DHT22;19889;52.546;13.348;2023-02-27T00:17:12;2.80;99.90
16523;DHT22;19889;52.546;13.348;2023-02-27T00:19:39;2.50;99.90
16523;DHT22;19889;52.546;13.348;2023-02-27T00:22:06;2.50;99.90
16523;DHT22;19889;52.546;13.348;2023-02-27T00:24:33;2.40;99.90
16523;DHT22;19889;52.546;13.348;2023-02-27T00:27:01;2.50;99.90
16523;DHT22;19889;52.546;13.348;2023-02-27T00:29:28;2.40;99.90
16523;DHT22;19889;52.546;13.348;2023-02-27T00:31:55;2.40;99.90
16523;DHT22;19889;52.546;13.348;2023-02-27T00:34:23;2.30;99.90
16523;DHT22;19889;52.546;13.348;2023-02-27T00:36:51;2.30;99.90
16523;DHT22;19889;52.546;13.348;2023-02-27T00:39:18;2.40;99.90
16523;DHT22;19889;52.546;13.348;2023-02-27T00:41:45;2.40;99.90
16523;DHT22;19889;52.546;13.348;2023-02-27T00:44:14;2.30;99.90
16523;DHT22;19889;52.546;13.348;2023-02-27T00:46:40;2.30;99.90
16523;DHT22;19889;52.546;13.348;2023-02-27T01:04:04;2.10;99.90
16523;DHT22;19889;52.546;13.348;2023-02-27T01:06:31;2.30;99.90
16523;DHT22;19889;52.546;13.348;2023-02-27T01:08:58;2.50;99.90
16523;DHT22;19889;52.546;13.348;2023-02-27T01:11:25;2.30;99.90
16523;DHT22;19889;52.546;13.348;2023-02-27T01:13:52;2.10;99.90
16523;DHT22;19889;52.546;13.348;2023-02-27T01:16:19;2.40;99.90
16523;DHT22;19889;52.546;13.348;2023-02-27T01:18:47;2.40;99.90
16523;DHT22;19889;52.546;13.348;2023-02-27T01:21:14;2.30;99.90
16523;DHT22;19889;52.546;13.348;2023-02-27T01:23:44;2.20;99.90
16523;DHT22;19889;52.546;13.348;2023-02-27T01:26:11;2.30;99.90
16523;DHT22;19889;52.546;13.348;2023-02-27T01:28:38;2.40;99.90
16523;DHT22;19889;52.546;13.348;2023-02-27T01:31:05;2.30;99.90
16523;DHT22;19889;52.546;13.348;2023-02-27T01:33:32;2.00;99.90
16523;DHT22;19889;52.546;13.348;2023-02-27T01:36:00;1.90;99.90
16523;DHT22;19889;52.546;13.348;2023-02-27T01:38:27;2.20;99.90
16523;DHT22;19889;52.546;13.348;2023-02-27T01:40:54;2.00;99.90
16523;DHT22;19889;52.546;13.348;2023-02-27T01:43:22;2.00;99.90
16523;DHT22;19889;52.546;13.348;2023-02-27T01:45:51;2.10;99.90
16523;DHT22;19889;52.546;13.348;2023-02-27T01:48:22;2.00;99.90
16523;DHT22;19889;52.546;13.348;2023-02-27T01:50:53;2.30;99.90
16523;DHT22;19889;52.546;13.348;2023-02-27T01:53:25;2.00;99.90
16523;DHT22;19889;52.546;13.348;2023-02-27T01:55:54;2.10;99.90
16523;DHT22;19889;52.546;13.348;2023-02-27T01:58:21;1.90;99.90
16523;DHT22;19889;52.546;13.348;2023-02-27T02:00:50;1.80;99.90
16523;DHT22;19889;52.546;13.348;2023-02-27T02:03:23;2.10;99.90
16523;DHT22;19889;52.546;13.348;2023-02-27T02:05:53;1.70;99.90
16523;DHT22;19889;52.546;13.348;2023-02-27T02:08:23;2.10;99.90
16523;DHT22;19889;52.546;13.348;2023-02-27T02:10:52;1.90;99.90
16523;DHT22;19889;52.546;13.348;2023-02-27T02:13:20;2.20;99.90
16523;DHT22;19889;52.546;13.348;2023-02-27T02:15:54;1.90;99.90
16523;DHT22;19889;52.546;13.348;2023-02-27T02:18:32;1.80;99.90
16523;DHT22;19889;52.546;13.348;2023-02-27T02:27:20;1.70;99.90
16523;DHT22;19889;52.546;13.348;2023-02-27T02:30:18;1.70;99.90
16523;DHT22;19889;52.546;13.348;2023-02-27T02:39:26;1.60;99.90
16523;DHT22;19889;52.546;13.348;2023-02-27T02:42:02;1.90;99.90
16523;DHT22;19889;52.546;13.348;2023-02-27T02:44:37;2.00;99.90
16523;DHT22;19889;52.546;13.348;2023-02-27T02:47:14;1.70;99.90
16523;DHT22;19889;52.546;13.348;2023-02-27T02:49:48;1.60;99.90
16523;DHT22;19889;52.546;13.348;2023-02-27T02:52:25;1.90;99.90
16523;DHT22;19889;52.546;13.348;2023-02-27T02:54:58;1.60;99.90
16523;DHT22;19889;52.546;13.348;2023-02-27T02:57:32;1.80;99.90
16523;DHT22;19889;52.546;13.348;2023-02-27T03:00:03;1.80;99.90
16523;DHT22;19889;52.546;13.348;2023-02-27T03:02:34;1.60;99.90
16523;DHT22;19889;52.546;13.348;2023-02-27T03:05:05;1.70;99.90
16523;DHT22;19889;52.546;13.348;2023-02-27T03:07:37;1.60;99.90
16523;DHT22;19889;52.546;13.348;2023-02-27T03:10:09;1.60;99.90
16523;DHT22;19889;52.546;13.348;2023-02-27T03:12:39;1.60;99.90
16523;DHT22;19889;52.546;13.348;2023-02-27T03:15:11;1.80;99.90
16523;DHT22;19889;52.546;13.348;2023-02-27T03:17:44;1.50;99.90
16523;DHT22;19889;52.546;13.348;2023-02-27T03:20:19;1.80;99.90
16523;DHT22;19889;52.546;13.348;2023-02-27T03:22:51;1.50;99.90
16523;DHT22;19889;52.546;13.348;2023-02-27T03:25:22;1.80;99.90
16523;DHT22;19889;52.546;13.348;2023-02-27T03:27:54;1.40;99.90
16523;DHT22;19889;52.546;13.348;2023-02-27T03:30:26;1.60;99.90
16523;DHT22;19889;52.546;13.348;2023-02-27T03:32:59;1.30;99.90
16523;DHT22;19889;52.546;13.348;2023-02-27T03:35:34;1.40;99.90
16523;DHT22;19889;52.546;13.348;2023-02-27T03:38:08;1.40;99.90
16523;DHT22;19889;52.546;13.348;2023-02-27T03:40:45;1.50;99.90
16523;DHT22;19889;52.546;13.348;2023-02-27T03:43:24;1.30;99.90
16523;DHT22;19889;52.546;13.348;2023-02-27T03:45:58;1.40;99.90
16523;DHT22;19889;52.546;13.348;2023-02-27T03:48:28;1.40;99.90
16523;DHT22;19889;52.546;13.348;2023-02-27T03:50:55;1.40;99.90
16523;DHT22;19889;52.546;13.348;2023-02-27T03:53:29;2.10;99.90
16523;DHT22;19889;52.546;13.348;2023-02-27T03:56:01;1.30;99.90
16523;DHT22;19889;52.546;13.348;2023-02-27T03:58:30;1.40;99.90
16523;DHT22;19889;52.546;13.348;2023-02-27T04:00:57;1.40;99.90
16523;DHT22;19889;52.546;13.348;2023-02-27T04:03:25;1.40;99.90
16523;DHT22;19889;52.546;13.348;2023-02-27T04:05:52;1.40;99.90
16523;DHT22;19889;52.546;13.348;2023-02-27T04:08:32;1.40;99.90
16523;DHT22;19889;52.546;13.348;2023-02-27T04:11:29;1.40;99.90
16523;DHT22;19889;52.546;13.348;2023-02-27T04:14:12;1.30;99.90
16523;DHT22;19889;52.546;13.348;2023-02-27T04:16:52;1.30;99.90
16523;DHT22;19889;52.546;13.348;2023-02-27T04:19:33;1.30;99.90
16523;DHT22;19889;52.546;13.348;2023-02-27T04:22:10;1.20;99.90
16523;DHT22;19889;52.546;13.348;2023-02-27T04:24:45;1.30;99.90
16523;DHT22;19889;52.546;13.348;2023-02-27T04:27:25;1.10;99.90
16523;DHT22;19889;52.546;13.348;2023-02-27T04:29:56;1.20;99.90
16523;DHT22;19889;52.546;13.348;2023-02-27T04:32:29;1.30;99.90
16523;DHT22;19889;52.546;13.348;2023-02-27T04:35:01;1.20;99.90
16523;DHT22;19889;52.546;13.348;2023-02-27T04:37:34;1.20;99.90
16523;DHT22;19889;52.546;13.348;2023-02-27T04:40:06;0.90;99.90
16523;DHT22;19889;52.546;13.348;2023-02-27T04:42:38;1.20;99.90
16523;DHT22;19889;52.546;13.348;2023-02-27T04:45:10;1.20;99.90
16523;DHT22;19889;52.546;13.348;2023-02-27T04:47:46;1.20;99.90
16523;DHT22;19889;52.546;13.348;2023-02-27T04:50:19;1.20;99.90
16523;DHT22;19889;52.546;13.348;2023-02-27T04:52:51;1.20;99.90
16523;DHT22;19889;52.546;13.348;2023-02-27T04:55:22;1.20;99.90
16523;DHT22;19889;52.546;13.348;2023-02-27T04:57:58;1.10;99.90
16523;DHT22;19889;52.546;13.348;2023-02-27T05:00:26;1.20;99.90
16523;DHT22;19889;52.546;13.348;2023-02-27T05:02:57;1.10;99.90
16523;DHT22;19889;52.546;13.348;2023-02-27T05:05:29;1.10;99.90
16523;DHT22;19889;52.546;13.348;2023-02-27T05:08:02;1.20;99.90
16523;DHT22;19889;52.546;13.348;2023-02-27T05:10:33;1.10;99.90
16523;DHT22;19889;52.546;13.348;2023-02-27T05:13:05;1.10;99.90
16523;DHT22;19889;52.546;13.348;2023-02-27T05:15:38;1.00;99.90
16523;DHT22;19889;52.546;13.348;2023-02-27T05:18:08;1.50;99.90
16523;DHT22;19889;52.546;13.348;2023-02-27T05:20:43;0.80;99.90
16523;DHT22;19889;52.546;13.348;2023-02-27T05:23:20;1.00;99.90
16523;DHT22;19889;52.546;13.348;2023-02-27T05:25:54;1.00;99.90
16523;DHT22;19889;52.546;13.348;2023-02-27T05:28:27;1.00;99.90
16523;DHT22;19889;52.546;13.348;2023-02-27T05:31:00;1.00;99.90
16523;DHT22;19889;52.546;13.348;2023-02-27T05:33:31;1.00;99.90
16523;DHT22;19889;52.546;13.348;2023-02-27T05:36:02;1.50;99.90
16523;DHT22;19889;52.546;13.348;2023-02-27T05:38:33;1.00;99.90
16523;DHT22;19889;52.546;13.348;2023-02-27T05:41:06;1.00;99.90
16523;DHT22;19889;52.546;13.348;2023-02-27T05:43:38;1.00;99.90
16523;DHT22;19889;52.546;13.348;2023-02-27T05:46:10;1.00;99.90
16523;DHT22;19889;52.546;13.348;2023-02-27T05:48:42;1.10;99.90
16523;DHT22;19889;52.546;13.348;2023-02-27T05:51:13;0.90;99.90
16523;DHT22;19889;52.546;13.348;2023-02-27T05:53:46;0.40;99.90
16523;DHT22;19889;52.546;13.348;2023-02-27T05:56:16;1.10;99.90
16523;DHT22;19889;52.546;13.348;2023-02-27T05:58:49;0.90;99.90
16523;DHT22;19889;52.546;13.348;2023-02-27T06:01:17;1.70;99.90
16523;DHT22;19889;52.546;13.348;2023-02-27T06:03:44;0.90;99.90
16523;DHT22;19889;52.546;13.348;2023-02-27T06:06:14;0.90;99.90
16523;DHT22;19889;52.546;13.348;2023-02-27T06:08:42;0.90;99.90
16523;DHT22;19889;52.546;13.348;2023-02-27T06:11:09;0.80;99.90
16523;DHT22;19889;52.546;13.348;2023-02-27T06:13:37;0.80;99.90
16523;DHT22;19889;52.546;13.348;2023-02-27T06:16:09;0.60;99.90
16523;DHT22;19889;52.546;13.348;2023-02-27T06:18:36;0.80;99.90
16523;DHT22;19889;52.546;13.348;2023-02-27T06:21:03;0.80;99.90
16523;DHT22;19889;52.546;13.348;2023-02-27T06:23:30;0.80;99.90
16523;DHT22;19889;52.546;13.348;2023-02-27T06:25:57;0.80;99.90
16523;DHT22;19889;52.546;13.348;2023-02-27T06:28:24;0.80;99.90
16523;DHT22;19889;52.546;13.348;2023-02-27T06:30:52;0.90;99.90
16523;DHT22;19889;52.546;13.348;2023-02-27T06:33:21;1.20;99.90
16523;DHT22;19889;52.546;13.348;2023-02-27T06:35:49;0.80;99.90
16523;DHT22;19889;52.546;13.348;2023-02-27T06:38:16;0.70;99.90
16523;DHT22;19889;52.546;13.348;2023-02-27T06:40:43;0.80;99.90
16523;DHT22;19889;52.546;13.348;2023-02-27T06:43:10;0.80;99.90
16523;DHT22;19889;52.546;13.348;2023-02-27T06:45:39;0.80;99.90
16523;DHT22;19889;52.546;13.348;2023-02-27T06:48:06;0.70;99.90
16523;DHT22;19889;52.546;13.348;2023-02-27T06:50:34;0.80;99.90
16523;DHT22;19889;52.546;13.348;2023-02-27T06:53:02;0.90;99.90
16523;DHT22;19889;52.546;13.348;2023-02-27T06:55:28;0.90;99.90
16523;DHT22;19889;52.546;13.348;2023-02-27T06:57:55;0.60;99.90
16523;DHT22;19889;52.546;13.348;2023-02-27T07:00:23;0.90;99.90
16523;DHT22;19889;52.546;13.348;2023-02-27T07:02:50;0.70;99.90
16523;DHT22;19889;52.546;13.348;2023-02-27T07:05:17;1.50;99.90
16523;DHT22;19889;52.546;13.348;2023-02-27T07:07:45;0.90;99.90
16523;DHT22;19889;52.546;13.348;2023-02-27T07:10:13;0.70;99.90
16523;DHT22;19889;52.546;13.348;2023-02-27T07:12:40;1.00;99.90
16523;DHT22;19889;52.546;13.348;2023-02-27T07:15:08;1.60;99.90
16523;DHT22;19889;52.546;13.348;2023-02-27T07:17:35;1.00;99.90
16523;DHT22;19889;52.546;13.348;2023-02-27T07:20:03;1.00;99.90
16523;DHT22;19889;52.546;13.348;2023-02-27T07:22:31;1.10;99.90
16523;DHT22;19889;52.546;13.348;2023-02-27T07:24:59;1.20;99.90
16523;DHT22;19889;52.546;13.348;2023-02-27T07:27:26;1.10;99.90
16523;DHT22;19889;52.546;13.348;2023-02-27T07:29:53;1.10;99.90
16523;DHT22;19889;52.546;13.348;2023-02-27T07:32:20;1.20;99.90
16523;DHT22;19889;52.546;13.348;2023-02-27T07:34:47;1.20;99.90
16523;DHT22;19889;52.546;13.348;2023-02-27T07:37:14;1.20;99.90
16523;DHT22;19889;52.546;13.348;2023-02-27T07:39:41;1.30;99.90
16523;DHT22;19889;52.546;13.348;2023-02-27T07:42:09;1.30;99.90
16523;DHT22;19889;52.546;13.348;2023-02-27T07:44:38;1.30;99.90
16523;DHT22;19889;52.546;13.348;2023-02-27T07:47:05;1.40;99.90
16523;DHT22;19889;52.546;13.348;2023-02-27T07:49:32;1.40;99.90
16523;DHT22;19889;52.546;13.348;2023-02-27T07:51:59;1.40;99.90
16523;DHT22;19889;52.546;13.348;2023-02-27T07:54:26;1.30;99.90
16523;DHT22;19889;52.546;13.348;2023-02-27T07:56:53;1.40;99.90
16523;DHT22;19889;52.546;13.348;2023-02-27T07:59:21;1.40;99.90
16523;DHT22;19889;52.546;13.348;2023-02-27T08:01:48;1.40;99.90
16523;DHT22;19889;52.546;13.348;2023-02-27T08:04:15;1.60;99.90
16523;DHT22;19889;52.546;13.348;2023-02-27T08:06:42;1.60;99.90
16523;DHT22;19889;52.546;13.348;2023-02-27T08:09:09;1.50;99.90
16523;DHT22;19889;52.546;13.348;2023-02-27T08:11:36;1.50;99.90
16523;DHT22;19889;52.546;13.348;2023-02-27T08:14:03;1.90;99.90
16523;DHT22;19889;52.546;13.348;2023-02-27T08:16:32;1.70;99.90
16523;DHT22;19889;52.546;13.348;2023-02-27T08:18:59;1.50;99.90
16523;DHT22;19889;52.546;13.348;2023-02-27T08:21:28;1.80;99.90
16523;DHT22;19889;52.546;13.348;2023-02-27T08:23:55;1.80;99.90
16523;DHT22;19889;52.546;13.348;2023-02-27T08:26:22;1.90;99.90
16523;DHT22;19889;52.546;13.348;2023-02-27T08:28:50;1.90;99.90
16523;DHT22;19889;52.546;13.348;2023-02-27T08:31:17;1.90;99.90
16523;DHT22;19889;52.546;13.348;2023-02-27T08:33:45;2.00;99.90
16523;DHT22;19889;52.546;13.348;2023-02-27T08:36:12;2.20;99.90
16523;DHT22;19889;52.546;13.348;2023-02-27T08:38:39;2.10;99.90
16523;DHT22;19889;52.546;13.348;2023-02-27T08:41:06;2.10;99.90
16523;DHT22;19889;52.546;13.348;2023-02-27T08:43:33;2.10;99.90
16523;DHT22;19889;52.546;13.348;2023-02-27T08:46:00;2.10;99.90
16523;DHT22;19889;52.546;13.348;2023-02-27T08:48:27;2.20;99.90
16523;DHT22;19889;52.546;13.348;2023-02-27T08:50:55;2.30;99.90
16523;DHT22;19889;52.546;13.348;2023-02-27T08:53:23;2.40;99.90
16523;DHT22;19889;52.546;13.348;2023-02-27T08:55:50;2.40;99.90
16523;DHT22;19889;52.546;13.348;2023-02-27T08:58:18;2.60;99.90
16523;DHT22;19889;52.546;13.348;2023-02-27T09:00:45;2.50;99.90
16523;DHT22;19889;52.546;13.348;2023-02-27T09:03:12;2.60;99.90
16523;DHT22;19889;52.546;13.348;2023-02-27T09:05:40;2.60;99.90
16523;DHT22;19889;52.546;13.348;2023-02-27T09:08:08;2.60;99.90
16523;DHT22;19889;52.546;13.348;2023-02-27T09:10:36;2.60;99.90
16523;DHT22;19889;52.546;13.348;2023-02-27T09:13:03;2.70;99.90
16523;DHT22;19889;52.546;13.348;2023-02-27T09:15:30;2.70;99.90
16523;DHT22;19889;52.546;13.348;2023-02-27T09:18:00;2.70;99.90
16523;DHT22;19889;52.546;13.348;2023-02-27T09:20:28;2.60;99.90
16523;DHT22;19889;52.546;13.348;2023-02-27T09:22:56;2.80;99.90
16523;DHT22;19889;52.546;13.348;2023-02-27T09:25:26;2.80;99.90
16523;DHT22;19889;52.546;13.348;2023-02-27T09:27:53;3.30;99.90
16523;DHT22;19889;52.546;13.348;2023-02-27T09:30:22;3.20;99.90
16523;DHT22;19889;52.546;13.348;2023-02-27T09:32:50;2.90;99.90
16523;DHT22;19889;52.546;13.348;2023-02-27T09:35:17;2.90;99.90
16523;DHT22;19889;52.546;13.348;2023-02-27T09:37:46;3.00;99.90
16523;DHT22;19889;52.546;13.348;2023-02-27T09:40:19;3.00;99.90
16523;DHT22;19889;52.546;13.348;2023-02-27T09:42:50;3.00;99.90
16523;DHT22;19889;52.546;13.348;2023-02-27T09:45:21;3.50;99.90
16523;DHT22;19889;52.546;13.348;2023-02-27T09:47:52;3.10;99.90
16523;DHT22;19889;52.546;13.348;2023-02-27T09:50:37;3.20;99.90
16523;DHT22;19889;52.546;13.348;2023-02-27T09:53:10;3.20;99.90
16523;DHT22;19889;52.546;13.348;2023-02-27T09:55:39;3.30;99.90
16523;DHT22;19889;52.546;13.348;2023-02-27T09:58:19;3.30;99.90
16523;DHT22;19889;52.546;13.348;2023-02-27T10:00:54;3.30;99.90
16523;DHT22;19889;52.546;13.348;2023-02-27T10:03:32;3.40;99.90
16523;DHT22;19889;52.546;13.348;2023-02-27T10:06:20;3.40;99.90
16523;DHT22;19889;52.546;13.348;2023-02-27T10:08:56;3.40;99.90
16523;DHT22;19889;52.546;13.348;2023-02-27T10:11:31;4.60;99.90
16523;DHT22;19889;52.546;13.348;2023-02-27T10:14:09;3.40;99.90
16523;DHT22;19889;52.546;13.348;2023-02-27T10:16:38;3.50;99.90
16523;DHT22;19889;52.546;13.348;2023-02-27T10:19:13;3.50;99.90
16523;DHT22;19889;52.546;13.348;2023-02-27T10:21:43;3.60;99.90
16523;DHT22;19889;52.546;13.348;2023-02-27T10:24:20;3.60;99.90
16523;DHT22;19889;52.546;13.348;2023-02-27T10:26:50;3.30;99.90
16523;DHT22;19889;52.546;13.348;2023-02-27T10:29:26;3.70;99.90
16523;DHT22;19889;52.546;13.348;2023-02-27T10:31:58;3.70;99.90
16523;DHT22;19889;52.546;13.348;2023-02-27T10:34:28;3.80;99.90
16523;DHT22;19889;52.546;13.348;2023-02-27T10:36:56;3.90;99.90
16523;DHT22;19889;52.546;13.348;2023-02-27T10:39:24;4.30;99.90
16523;DHT22;19889;52.546;13.348;2023-02-27T10:41:53;3.50;99.90
16523;DHT22;19889;52.546;13.348;2023-02-27T10:44:22;3.60;99.90
16523;DHT22;19889;52.546;13.348;2023-02-27T10:46:49;4.00;99.90
16523;DHT22;19889;52.546;13.348;2023-02-27T10:49:17;4.00;99.90
16523;DHT22;19889;52.546;13.348;2023-02-27T10:51:45;3.80;99.90
16523;DHT22;19889;52.546;13.348;2023-02-27T10:54:22;4.00;99.90
16523;DHT22;19889;52.546;13.348;2023-02-27T10:56:52;4.10;99.90
16523;DHT22;19889;52.546;13.348;2023-02-27T10:59:24;4.10;99.90
16523;DHT22;19889;52.546;13.348;2023-02-27T11:01:54;3.70;99.90
16523;DHT22;19889;52.546;13.348;2023-02-27T11:04:31;3.80;99.90
16523;DHT22;19889;52.546;13.348;2023-02-27T11:07:02;4.30;99.90
16523;DHT22;19889;52.546;13.348;2023-02-27T11:09:30;4.20;99.90
16523;DHT22;19889;52.546;13.348;2023-02-27T11:12:19;4.40;99.90
16523;DHT22;19889;52.546;13.348;2023-02-27T11:14:52;4.30;99.90
16523;DHT22;19889;52.546;13.348;2023-02-27T11:17:23;4.30;99.90
16523;DHT22;19889;52.546;13.348;2023-02-27T11:19:50;4.40;99.90
16523;DHT22;19889;52.546;13.348;2023-02-27T11:22:19;4.40;99.90
16523;DHT22;19889;52.546;13.348;2023-02-27T11:24:48;4.50;99.90
16523;DHT22;19889;52.546;13.348;2023-02-27T11:27:19;4.50;99.90
16523;DHT22;19889;52.546;13.348;2023-02-27T11:29:59;4.40;99.90
16523;DHT22;19889;52.546;13.348;2023-02-27T11:32:35;4.40;99.90
16523;DHT22;19889;52.546;13.348;2023-02-27T11:35:21;4.40;99.90
16523;DHT22;19889;52.546;13.348;2023-02-27T11:37:49;4.40;99.90
16523;DHT22;19889;52.546;13.348;2023-02-27T11:40:18;4.40;99.90
16523;DHT22;19889;52.546;13.348;2023-02-27T11:42:48;5.90;99.90
16523;DHT22;19889;52.546;13.348;2023-02-27T11:45:28;4.40;99.90
16523;DHT22;19889;52.546;13.348;2023-02-27T11:47:58;4.50;99.90
16523;DHT22;19889;52.546;13.348;2023-02-27T11:50:52;4.40;99.90
16523;DHT22;19889;52.546;13.348;2023-02-27T11:56:21;4.40;99.90
16523;DHT22;19889;52.546;13.348;2023-02-27T11:58:57;4.80;99.90
16523;DHT22;19889;52.546;13.348;2023-02-27T12:01:32;4.40;99.90
16523;DHT22;19889;52.546;13.348;2023-02-27T12:04:07;4.20;99.90
16523;DHT22;19889;52.546;13.348;2023-02-27T12:06:39;4.40;99.90
16523;DHT22;19889;52.546;13.348;2023-02-27T12:09:21;4.40;99.90
16523;DHT22;19889;52.546;13.348;2023-02-27T12:11:49;4.90;99.90
16523;DHT22;19889;52.546;13.348;2023-02-27T12:14:20;4.30;99.90
16523;DHT22;19889;52.546;13.348;2023-02-27T12:16:53;4.40;99.90
16523;DHT22;19889;52.546;13.348;2023-02-27T12:19:28;5.10;99.90
16523;DHT22;19889;52.546;13.348;2023-02-27T12:21:58;4.30;99.90
16523;DHT22;19889;52.546;13.348;2023-02-27T12:24:30;4.90;99.90
16523;DHT22;19889;52.546;13.348;2023-02-27T12:27:09;4.50;99.90
16523;DHT22;19889;52.546;13.348;2023-02-27T12:29:40;4.50;99.90
16523;DHT22;19889;52.546;13.348;2023-02-27T12:32:17;5.10;99.90
16523;DHT22;19889;52.546;13.348;2023-02-27T12:34:48;4.50;99.90
16523;DHT22;19889;52.546;13.348;2023-02-27T12:37:22;4.60;99.90
16523;DHT22;19889;52.546;13.348;2023-02-27T12:39:51;4.60;99.90
16523;DHT22;19889;52.546;13.348;2023-02-27T12:42:45;4.70;99.90
16523;DHT22;19889;52.546;13.348;2023-02-27T12:48:26;4.70;99.90
16523;DHT22;19889;52.546;13.348;2023-02-27T12:51:04;4.80;99.90
16523;DHT22;19889;52.546;13.348;2023-02-27T12:53:53;4.70;99.90
16523;DHT22;19889;52.546;13.348;2023-02-27T12:56:25;4.70;99.90
16523;DHT22;19889;52.546;13.348;2023-02-27T12:58:59;4.80;99.90
16523;DHT22;19889;52.546;13.348;2023-02-27T13:01:38;4.80;99.90
16523;DHT22;19889;52.546;13.348;2023-02-27T13:04:17;4.80;99.90
16523;DHT22;19889;52.546;13.348;2023-02-27T13:06:51;4.80;99.90
16523;DHT22;19889;52.546;13.348;2023-02-27T13:09:26;4.70;99.90
16523;DHT22;19889;52.546;13.348;2023-02-27T13:12:04;5.00;99.90
16523;DHT22;19889;52.546;13.348;2023-02-27T13:14:42;4.90;99.90
16523;DHT22;19889;52.546;13.348;2023-02-27T13:17:16;5.00;99.90
16523;DHT22;19889;52.546;13.348;2023-02-27T13:19:50;6.40;99.90
16523;DHT22;19889;52.546;13.348;2023-02-27T13:22:23;4.90;99.90
16523;DHT22;19889;52.546;13.348;2023-02-27T13:24:55;5.00;99.90
16523;DHT22;19889;52.546;13.348;2023-02-27T13:27:25;5.00;99.90
16523;DHT22;19889;52.546;13.348;2023-02-27T13:30:05;5.20;99.90
16523;DHT22;19889;52.546;13.348;2023-02-27T13:32:40;5.10;99.90
16523;DHT22;19889;52.546;13.348;2023-02-27T13:35:18;5.10;99.90
16523;DHT22;19889;52.546;13.348;2023-02-27T13:37:54;5.70;99.90
16523;DHT22;19889;52.546;13.348;2023-02-27T13:40:34;5.20;99.90
16523;DHT22;19889;52.546;13.348;2023-02-27T13:43:26;5.10;99.90
16523;DHT22;19889;52.546;13.348;2023-02-27T13:45:55;5.00;99.90
16523;DHT22;19889;52.546;13.348;2023-02-27T13:48:43;5.30;99.90
16523;DHT22;19889;52.546;13.348;2023-02-27T13:54:31;5.10;99.90
16523;DHT22;19889;52.546;13.348;2023-02-27T13:57:13;5.10;99.90
16523;DHT22;19889;52.546;13.348;2023-02-27T13:59:59;5.20;99.90
16523;DHT22;19889;52.546;13.348;2023-02-27T14:02:40;5.10;99.90
16523;DHT22;19889;52.546;13.348;2023-02-27T14:05:10;5.20;99.90
16523;DHT22;19889;52.546;13.348;2023-02-27T14:07:54;5.10;99.90
16523;DHT22;19889;52.546;13.348;2023-02-27T14:10:26;5.50;99.90
16523;DHT22;19889;52.546;13.348;2023-02-27T14:12:55;6.10;99.90
16523;DHT22;19889;52.546;13.348;2023-02-27T14:15:55;5.30;99.90
16523;DHT22;19889;52.546;13.348;2023-02-27T14:18:55;5.30;99.90
16523;DHT22;19889;52.546;13.348;2023-02-27T14:21:52;5.30;99.90
16523;DHT22;19889;52.546;13.348;2023-02-27T14:24:27;5.30;99.90
16523;DHT22;19889;52.546;13.348;2023-02-27T14:26:59;5.30;99.90
16523;DHT22;19889;52.546;13.348;2023-02-27T14:29:28;5.30;99.90
16523;DHT22;19889;52.546;13.348;2023-02-27T14:32:00;5.30;99.90
16523;DHT22;19889;52.546;13.348;2023-02-27T14:34:30;5.30;99.90
16523;DHT22;19889;52.546;13.348;2023-02-27T14:36:58;5.20;99.90
16523;DHT22;19889;52.546;13.348;2023-02-27T14:39:29;5.40;99.90
16523;DHT22;19889;52.546;13.348;2023-02-27T14:44:49;5.40;99.90
16523;DHT22;19889;52.546;13.348;2023-02-27T14:47:18;5.30;99.90
16523;DHT22;19889;52.546;13.348;2023-02-27T14:49:46;4.80;99.90
16523;DHT22;19889;52.546;13.348;2023-02-27T14:52:19;5.30;99.90
16523;DHT22;19889;52.546;13.348;2023-02-27T14:54:47;5.30;99.90
16523;DHT22;19889;52.546;13.348;2023-02-27T14:57:18;5.10;99.90
16523;DHT22;19889;52.546;13.348;2023-02-27T14:59:46;5.20;99.90
16523;DHT22;19889;52.546;13.348;2023-02-27T15:02:22;5.20;99.90
16523;DHT22;19889;52.546;13.348;2023-02-27T15:04:53;5.90;99.90
16523;DHT22;19889;52.546;13.348;2023-02-27T15:07:23;5.30;99.90
16523;DHT22;19889;52.546;13.348;2023-02-27T15:09:54;5.30;99.90
16523;DHT22;19889;52.546;13.348;2023-02-27T15:12:24;5.30;99.90
16523;DHT22;19889;52.546;13.348;2023-02-27T15:14:53;5.30;99.90
16523;DHT22;19889;52.546;13.348;2023-02-27T15:17:24;5.30;99.90
16523;DHT22;19889;52.546;13.348;2023-02-27T15:19:53;6.00;99.90
16523;DHT22;19889;52.546;13.348;2023-02-27T15:22:22;5.30;99.90
16523;DHT22;19889;52.546;13.348;2023-02-27T15:24:53;6.30;99.90
16523;DHT22;19889;52.546;13.348;2023-02-27T15:27:24;5.40;99.90
16523;DHT22;19889;52.546;13.348;2023-02-27T15:29:52;5.40;99.90
16523;DHT22;19889;52.546;13.348;2023-02-27T15:32:25;5.30;99.90
16523;DHT22;19889;52.546;13.348;2023-02-27T15:34:54;5.30;99.90
16523;DHT22;19889;52.546;13.348;2023-02-27T15:37:23;5.20;99.90
16523;DHT22;19889;52.546;13.348;2023-02-27T15:39:52;5.40;99.90
16523;DHT22;19889;52.546;13.348;2023-02-27T15:42:24;5.40;99.90
16523;DHT22;19889;52.546;13.348;2023-02-27T15:44:51;5.40;99.90
16523;DHT22;19889;52.546;13.348;2023-02-27T15:47:22;5.10;99.90
16523;DHT22;19889;52.546;13.348;2023-02-27T15:49:54;5.40;99.90
16523;DHT22;19889;52.546;13.348;2023-02-27T15:52:23;5.40;99.90
16523;DHT22;19889;52.546;13.348;2023-02-27T15:54:52;5.30;99.90
16523;DHT22;19889;52.546;13.348;2023-02-27T15:57:20;5.40;99.90
16523;DHT22;19889;52.546;13.348;2023-02-27T15:59:50;5.40;99.90
16523;DHT22;19889;52.546;13.348;2023-02-27T16:02:22;5.50;99.90
16523;DHT22;19889;52.546;13.348;2023-02-27T16:04:49;5.50;99.90
16523;DHT22;19889;52.546;13.348;2023-02-27T16:07:19;5.50;99.90
16523;DHT22;19889;52.546;13.348;2023-02-27T16:09:49;5.40;99.90
16523;DHT22;19889;52.546;13.348;2023-02-27T16:12:22;6.30;99.90
16523;DHT22;19889;52.546;13.348;2023-02-27T16:15:07;5.40;99.90
16523;DHT22;19889;52.546;13.348;2023-02-27T16:17:35;5.30;99.90
16523;DHT22;19889;52.546;13.348;2023-02-27T16:20:27;5.30;99.90
16523;DHT22;19889;52.546;13.348;2023-02-27T16:23:01;5.30;99.90
16523;DHT22;19889;52.546;13.348;2023-02-27T16:25:29;5.20;99.90
16523;DHT22;19889;52.546;13.348;2023-02-27T16:27:56;5.30;99.90
16523;DHT22;19889;52.546;13.348;2023-02-27T16:30:24;5.30;99.90
16523;DHT22;19889;52.546;13.348;2023-02-27T16:32:58;5.30;99.90
16523;DHT22;19889;52.546;13.348;2023-02-27T16:35:26;4.70;99.90
16523;DHT22;19889;52.546;13.348;2023-02-27T16:37:59;5.30;99.90